Time;durP1;ratioP1;P1;durP2;ratioP2;P2;SDS_P1;SDS_P2;PMS_P1;PMS_P2;Temp;Humidity;BMP_temperature;BMP_pressure;BME280_temperature;BME280_humidity;BME280_pressure;Samples;Min_cycle;Max_cycle;Signal;HPM_P1;HPM_P2
2021/12/06 00:01:36;;;;;;;23.58;21.08;;;21.00;79.40;;;;;;6206941;28;88694;-61
2021/12/06 00:04:38;;;;;;;24.58;21.98;;;21.00;79.40;;;;;;6203797;28;88968;-61
2021/12/06 00:07:42;;;;;;;24.35;21.80;;;21.00;79.40;;;;;;6212040;28;89268;-61
2021/12/06 00:10:49;;;;;;;24.40;21.83;;;20.90;79.40;;;;;;6219701;28;89827;-61
2021/12/06 00:13:52;;;;;;;24.15;21.63;;;20.90;79.30;;;;;;6207332;28;89061;-61
2021/12/06 00:16:55;;;;;;;24.23;21.73;;;21.00;79.40;;;;;;6214788;28;88239;-61
2021/12/06 00:19:57;;;;;;;24.73;22.13;;;20.90;79.40;;;;;;6197495;28;87970;-61
2021/12/06 00:23:00;;;;;;;24.98;22.27;;;20.90;79.40;;;;;;6207141;28;87975;-62
2021/12/06 00:26:02;;;;;;;24.92;22.33;;;20.90;79.40;;;;;;6210952;28;88272;-62
2021/12/06 00:29:05;;;;;;;25.20;22.45;;;20.90;79.40;;;;;;6219066;28;89056;-61
2021/12/06 00:32:08;;;;;;;25.33;22.63;;;20.90;79.40;;;;;;6208402;28;88462;-61
2021/12/06 00:35:16;;;;;;;23.90;21.40;;;20.90;79.40;;;;;;6200038;28;88200;-61
2021/12/06 00:38:20;;;;;;;24.63;22.05;;;20.90;79.40;;;;;;6222580;28;89507;-61
2021/12/06 00:41:22;;;;;;;24.17;21.67;;;20.90;79.30;;;;;;6227133;28;89987;-61
2021/12/06 00:44:24;;;;;;;24.30;21.70;;;20.90;79.30;;;;;;6231957;28;88224;-61
2021/12/06 00:47:26;;;;;;;25.33;22.65;;;20.90;79.40;;;;;;6214966;28;89085;-61
2021/12/06 00:50:31;;;;;;;24.73;22.15;;;20.90;79.20;;;;;;6207448;28;88980;-61
2021/12/06 00:53:35;;;;;;;24.33;21.75;;;20.90;79.20;;;;;;6204444;28;89041;-61
2021/12/06 00:56:37;;;;;;;23.67;21.17;;;20.90;79.20;;;;;;6217965;28;87949;-61
2021/12/06 00:59:41;;;;;;;25.23;22.00;;;20.90;79.10;;;;;;6215862;28;89478;-61
2021/12/06 01:02:43;;;;;;;24.77;22.17;;;20.90;79.00;;;;;;6212561;28;88339;-61
2021/12/06 01:05:46;;;;;;;24.17;21.65;;;20.90;79.00;;;;;;6224659;28;89571;-61
2021/12/06 01:08:50;;;;;;;24.38;21.77;;;20.90;78.90;;;;;;6206398;28;89493;-61
2021/12/06 01:11:52;;;;;;;24.00;21.50;;;20.90;78.80;;;;;;6229409;28;89999;-61
2021/12/06 01:14:54;;;;;;;23.55;21.15;;;20.90;78.80;;;;;;6210622;28;89371;-61
2021/12/06 01:17:59;;;;;;;23.63;21.13;;;20.90;78.80;;;;;;6213486;28;89349;-61
2021/12/06 01:21:09;;;;;;;23.65;21.15;;;20.90;78.80;;;;;;6221854;28;89264;-61
2021/12/06 01:24:13;;;;;;;23.00;20.50;;;20.90;78.80;;;;;;6222760;28;89181;-61
2021/12/06 01:27:32;;;;;;;23.50;20.60;;;20.90;78.90;;;;;;6210586;28;89172;-60
2021/12/06 01:30:50;;;;;;;22.27;19.90;;;20.80;78.80;;;;;;6212681;28;88962;-61
2021/12/06 01:34:10;;;;;;;22.33;20.02;;;20.90;78.80;;;;;;6207970;28;88459;-61
2021/12/06 01:40:34;;;;;;;22.42;20.05;;;20.90;78.90;;;;;;6227613;28;89641;-62
2021/12/06 01:43:36;;;;;;;22.27;19.95;;;20.80;78.80;;;;;;6228130;28;89652;-62
2021/12/06 01:46:42;;;;;;;22.45;20.05;;;20.80;78.80;;;;;;6207378;28;88401;-61
2021/12/06 01:49:49;;;;;;;21.40;19.13;;;20.80;78.80;;;;;;6222159;28;89428;-61
2021/12/06 01:52:53;;;;;;;22.08;19.70;;;20.80;78.80;;;;;;6207412;28;88728;-61
2021/12/06 01:55:57;;;;;;;21.70;19.35;;;20.80;78.80;;;;;;6210833;28;89334;-61
2021/12/06 01:58:59;;;;;;;21.88;19.58;;;20.80;78.80;;;;;;6202460;28;89050;-61
2021/12/06 02:02:02;;;;;;;21.48;19.17;;;20.80;78.80;;;;;;6192109;28;89421;-61
2021/12/06 02:05:05;;;;;;;20.98;18.67;;;20.80;78.80;;;;;;6207337;28;88694;-61
2021/12/06 02:08:08;;;;;;;20.98;18.80;;;20.70;78.70;;;;;;6197723;28;89058;-61
2021/12/06 02:11:12;;;;;;;19.63;17.63;;;20.80;78.80;;;;;;6193351;28;89092;-61
2021/12/06 02:14:26;;;;;;;20.48;18.38;;;20.80;78.70;;;;;;6193029;28;90151;-61
2021/12/06 02:17:32;;;;;;;19.95;17.92;;;20.80;78.70;;;;;;6198293;28;88221;-61
2021/12/06 02:20:42;;;;;;;20.23;18.13;;;20.70;78.50;;;;;;6208907;28;89066;-61
2021/12/06 02:23:46;;;;;;;19.60;17.60;;;20.80;78.60;;;;;;6199056;28;88236;-61
2021/12/06 02:26:48;;;;;;;19.38;17.33;;;20.80;78.50;;;;;;6204288;28;89610;-61
2021/12/06 02:29:52;;;;;;;19.27;17.27;;;20.90;78.50;;;;;;6216908;28;89149;-61
2021/12/06 02:32:54;;;;;;;18.95;17.05;;;20.80;78.40;;;;;;6209369;28;89423;-61
2021/12/06 02:35:56;;;;;;;19.48;17.48;;;20.90;78.30;;;;;;6207964;28;88380;-61
2021/12/06 02:39:00;;;;;;;18.30;16.40;;;20.80;78.20;;;;;;6203204;28;88007;-61
2021/12/06 02:42:02;;;;;;;19.23;17.23;;;20.90;78.30;;;;;;6203082;28;89072;-61
2021/12/06 02:45:06;;;;;;;18.60;16.65;;;20.80;78.30;;;;;;6203091;28;90134;-61
2021/12/06 02:48:11;;;;;;;18.90;16.92;;;20.80;78.30;;;;;;6203091;28;89379;-61
2021/12/06 02:51:15;;;;;;;17.75;15.85;;;20.80;78.40;;;;;;6215956;28;89124;-61
2021/12/06 02:54:20;;;;;;;17.60;15.80;;;20.70;78.30;;;;;;6206119;28;89334;-62
2021/12/06 02:57:33;;;;;;;17.55;15.75;;;20.70;78.30;;;;;;6205546;28;91055;-61
2021/12/06 03:00:35;;;;;;;17.80;15.90;;;20.70;78.40;;;;;;6194113;28;89118;-61
2021/12/06 03:03:37;;;;;;;17.05;15.35;;;20.70;78.40;;;;;;6199331;28;89523;-61
2021/12/06 03:06:41;;;;;;;16.95;15.15;;;20.70;78.40;;;;;;6196567;28;88645;-61
2021/12/06 03:09:46;;;;;;;16.55;14.85;;;20.70;78.40;;;;;;6206298;28;88970;-61
2021/12/06 03:12:48;;;;;;;16.10;14.40;;;20.70;78.40;;;;;;6194438;28;89242;-61
2021/12/06 03:15:50;;;;;;;15.73;14.10;;;20.70;78.40;;;;;;6205281;28;90066;-61
2021/12/06 03:18:54;;;;;;;15.80;14.18;;;20.70;78.40;;;;;;6216406;28;89024;-61
2021/12/06 03:21:57;;;;;;;17.08;15.27;;;20.70;78.30;;;;;;6202469;28;89201;-61
2021/12/06 03:25:00;;;;;;;15.63;14.02;;;20.70;78.40;;;;;;6204447;28;89462;-61
2021/12/06 03:28:03;;;;;;;15.35;13.85;;;20.70;78.40;;;;;;6208672;28;89046;-61
2021/12/06 03:31:06;;;;;;;15.50;13.93;;;20.60;78.30;;;;;;6202327;28;89175;-61
2021/12/06 03:34:10;;;;;;;14.35;12.85;;;20.60;78.30;;;;;;6219229;28;88283;-61
2021/12/06 03:37:12;;;;;;;15.18;13.60;;;20.60;78.40;;;;;;6199252;28;88481;-61
2021/12/06 03:40:15;;;;;;;14.70;13.20;;;20.60;78.30;;;;;;6211746;28;89054;-61
2021/12/06 03:43:18;;;;;;;14.45;12.95;;;20.70;78.30;;;;;;6203509;28;88968;-61
2021/12/06 03:46:21;;;;;;;14.43;12.95;;;20.70;78.30;;;;;;6201111;28;90153;-61
2021/12/06 03:49:23;;;;;;;15.18;13.57;;;20.70;78.20;;;;;;6206137;28;89047;-61
2021/12/06 03:52:25;;;;;;;13.98;12.57;;;20.70;78.10;;;;;;6199079;28;89228;-61
2021/12/06 03:55:29;;;;;;;13.13;11.75;;;20.70;78.00;;;;;;6213616;28;89003;-62
2021/12/06 03:58:32;;;;;;;13.88;12.40;;;20.70;78.00;;;;;;6199899;28;89067;-61
2021/12/06 04:01:35;;;;;;;12.93;11.63;;;20.70;77.80;;;;;;6210652;28;88154;-61
2021/12/06 04:04:37;;;;;;;13.60;12.13;;;20.80;77.90;;;;;;6213969;28;89467;-61
2021/12/06 04:07:39;;;;;;;13.95;11.75;;;20.70;77.90;;;;;;6213247;28;88274;-61
2021/12/06 04:10:43;;;;;;;12.77;11.48;;;20.70;77.90;;;;;;6215272;28;89095;-61
2021/12/06 04:13:45;;;;;;;13.32;11.93;;;20.70;78.00;;;;;;6213569;28;89320;-61
2021/12/06 04:16:48;;;;;;;13.45;11.70;;;20.70;78.00;;;;;;6196953;28;90299;-61
2021/12/06 04:19:50;;;;;;;12.73;11.43;;;20.70;78.10;;;;;;6207928;28;87775;-61
2021/12/06 04:22:53;;;;;;;12.38;11.07;;;20.60;78.00;;;;;;6201425;28;89245;-61
2021/12/06 04:25:57;;;;;;;12.15;10.93;;;20.60;78.10;;;;;;6216085;28;89014;-61
2021/12/06 04:29:01;;;;;;;12.35;11.15;;;20.60;78.20;;;;;;6212237;28;88246;-61
2021/12/06 04:32:03;;;;;;;12.50;11.27;;;20.60;78.20;;;;;;6221391;28;89467;-61
2021/12/06 04:35:07;;;;;;;12.43;11.18;;;20.60;78.20;;;;;;6206092;28;87812;-61
2021/12/06 04:38:10;;;;;;;11.82;10.63;;;20.60;78.20;;;;;;6211289;28;88607;-61
2021/12/06 04:41:13;;;;;;;11.00;9.90;;;20.60;78.20;;;;;;6210789;28;87969;-61
2021/12/06 04:44:16;;;;;;;11.27;10.18;;;20.60;78.20;;;;;;6204811;28;89428;-61
2021/12/06 04:47:18;;;;;;;10.60;9.50;;;20.60;78.20;;;;;;6199289;28;90024;-61
2021/12/06 04:50:24;;;;;;;10.82;9.73;;;20.60;78.20;;;;;;6211242;28;89163;-61
2021/12/06 04:53:36;;;;;;;10.80;9.70;;;20.60;78.20;;;;;;6207389;28;89135;-61
2021/12/06 04:56:42;;;;;;;10.35;9.25;;;20.60;78.10;;;;;;6207318;28;89048;-61
2021/12/06 04:59:47;;;;;;;10.35;9.35;;;20.60;78.10;;;;;;6231105;28;89489;-61
2021/12/06 05:02:50;;;;;;;9.90;8.95;;;20.60;78.20;;;;;;6219938;28;89233;-61
2021/12/06 05:05:58;;;;;;;9.95;8.95;;;20.70;78.20;;;;;;6218506;28;89157;-61
2021/12/06 05:09:08;;;;;;;9.38;8.48;;;20.60;78.20;;;;;;6211193;28;88307;-61
2021/12/06 05:12:14;;;;;;;9.45;8.55;;;20.70;78.30;;;;;;6219290;28;87976;-61
2021/12/06 05:15:16;;;;;;;9.73;8.73;;;20.70;78.30;;;;;;6204553;28;89332;-61
2021/12/06 05:18:18;;;;;;;9.45;8.55;;;20.70;78.30;;;;;;6200642;28;90025;-61
2021/12/06 05:21:20;;;;;;;9.18;8.27;;;20.70;78.30;;;;;;6200878;28;89426;-61
2021/12/06 05:24:22;;;;;;;8.65;7.85;;;20.70;78.20;;;;;;6203661;28;89372;-61
2021/12/06 05:27:29;;;;;;;8.85;7.95;;;20.70;78.20;;;;;;6202385;28;87983;-61
2021/12/06 05:30:32;;;;;;;8.98;8.07;;;20.70;78.20;;;;;;6204286;28;88967;-61
2021/12/06 05:33:34;;;;;;;9.05;8.15;;;20.70;78.30;;;;;;6219826;28;88997;-62
2021/12/06 05:36:36;;;;;;;8.55;7.75;;;20.70;78.30;;;;;;6211971;28;89310;-61
2021/12/06 05:39:38;;;;;;;8.70;7.88;;;20.70;78.30;;;;;;6203778;28;88684;-61
2021/12/06 05:42:42;;;;;;;9.23;8.32;;;20.70;78.30;;;;;;6198806;28;89104;-61
2021/12/06 05:45:44;;;;;;;8.30;7.50;;;20.70;78.30;;;;;;6215267;28;89098;-61
2021/12/06 05:52:06;;;;;;;8.15;7.35;;;20.70;78.40;;;;;;6204358;28;87684;-61
2021/12/06 05:55:10;;;;;;;8.25;7.45;;;20.70;78.40;;;;;;6210535;28;89016;-61
2021/12/06 05:58:17;;;;;;;8.65;7.75;;;20.70;78.30;;;;;;6228571;28;89148;-61
2021/12/06 06:01:21;;;;;;;7.65;6.88;;;20.70;78.40;;;;;;6195130;28;87962;-61
2021/12/06 06:04:26;;;;;;;7.65;6.90;;;20.60;78.30;;;;;;6195223;28;88755;-61
2021/12/06 06:07:28;;;;;;;7.55;6.85;;;20.70;78.40;;;;;;6218462;28;89240;-61
2021/12/06 06:10:50;;;;;;;7.70;6.93;;;20.70;78.40;;;;;;6195777;28;88351;-61
2021/12/06 06:13:54;;;;;;;7.50;6.70;;;20.70;78.50;;;;;;6201455;28;89069;-61
2021/12/06 06:17:03;;;;;;;7.57;6.80;;;20.70;78.50;;;;;;6196500;28;89085;-61
2021/12/06 06:20:07;;;;;;;7.28;6.57;;;20.60;78.50;;;;;;6196926;28;88738;-61
2021/12/06 06:23:10;;;;;;;7.47;6.78;;;20.70;78.60;;;;;;6212841;28;87923;-60
2021/12/06 06:26:12;;;;;;;7.28;6.57;;;20.60;78.50;;;;;;6203132;28;89191;-61
2021/12/06 06:29:15;;;;;;;7.47;6.65;;;20.60;78.50;;;;;;6203394;28;88024;-61
2021/12/06 06:32:18;;;;;;;6.90;6.20;;;20.70;78.50;;;;;;6206461;28;89167;-61
2021/12/06 06:35:21;;;;;;;6.60;6.00;;;20.70;78.60;;;;;;6207497;28;89612;-61
2021/12/06 06:38:23;;;;;;;6.80;6.20;;;20.70;78.60;;;;;;6207839;28;90251;-61
2021/12/06 06:41:26;;;;;;;7.05;6.35;;;20.70;78.50;;;;;;6205979;28;88400;-61
2021/12/06 06:44:29;;;;;;;7.13;6.43;;;20.70;78.80;;;;;;6204911;28;89668;-62
2021/12/06 06:47:31;;;;;;;6.88;6.20;;;20.70;78.50;;;;;;6208206;28;89062;-61
2021/12/06 06:50:33;;;;;;;6.97;6.28;;;20.70;78.50;;;;;;6198329;28;90029;-61
2021/12/06 06:53:35;;;;;;;6.55;5.95;;;20.70;78.50;;;;;;6201577;28;89258;-61
2021/12/06 06:56:37;;;;;;;6.65;5.97;;;20.70;78.50;;;;;;6205064;28;89272;-61
2021/12/06 06:59:41;;;;;;;5.97;5.38;;;20.70;78.50;;;;;;6195679;28;89087;-61
2021/12/06 07:02:44;;;;;;;6.20;5.60;;;20.70;78.50;;;;;;6208564;28;87954;-61
2021/12/06 07:05:46;;;;;;;6.50;5.90;;;20.70;78.50;;;;;;6205742;28;89094;-61
2021/12/06 07:08:48;;;;;;;6.25;5.65;;;20.70;78.50;;;;;;6206327;28;89026;-61
2021/12/06 07:11:51;;;;;;;6.15;5.55;;;20.70;78.50;;;;;;6201165;28;88287;-61
2021/12/06 07:14:55;;;;;;;6.32;5.35;;;20.70;78.60;;;;;;6205785;28;88186;-61
2021/12/06 07:17:58;;;;;;;5.47;4.97;;;20.70;78.60;;;;;;6206706;28;89040;-61
2021/12/06 07:21:00;;;;;;;5.82;5.28;;;20.70;78.70;;;;;;6196597;28;89754;-61
2021/12/06 07:24:02;;;;;;;5.65;5.15;;;20.60;78.60;;;;;;6201332;28;89043;-61
2021/12/06 07:27:05;;;;;;;5.80;5.20;;;20.60;78.50;;;;;;6209977;28;87960;-61
2021/12/06 07:30:11;;;;;;;6.07;5.47;;;20.70;78.70;;;;;;6215948;28;89062;-61
2021/12/06 07:33:13;;;;;;;5.20;4.70;;;20.60;78.60;;;;;;6204702;28;89161;-61
2021/12/06 07:36:15;;;;;;;5.53;5.03;;;20.70;78.70;;;;;;6201730;28;89491;-61
2021/12/06 07:39:17;;;;;;;5.60;5.10;;;20.70;78.60;;;;;;6210140;28;89078;-61
2021/12/06 07:42:19;;;;;;;5.38;4.88;;;20.70;78.70;;;;;;6210976;28;88274;-61
2021/12/06 07:45:23;;;;;;;5.40;4.90;;;20.60;78.60;;;;;;6203137;28;89042;-61
2021/12/06 07:48:25;;;;;;;5.38;4.88;;;20.60;78.60;;;;;;6206888;28;88216;-61
2021/12/06 07:51:29;;;;;;;5.10;4.60;;;20.70;78.70;;;;;;6200809;28;88903;-61
2021/12/06 07:54:31;;;;;;;5.38;4.82;;;20.60;78.60;;;;;;6210990;28;89195;-61
2021/12/06 07:57:34;;;;;;;5.43;4.93;;;20.70;78.70;;;;;;6217459;28;89103;-61
2021/12/06 08:00:40;;;;;;;4.95;4.47;;;20.60;78.60;;;;;;6208324;28;89109;-61
2021/12/06 08:03:43;;;;;;;4.80;4.40;;;20.70;78.70;;;;;;6216394;28;89193;-61
2021/12/06 08:06:46;;;;;;;5.22;4.72;;;20.70;78.70;;;;;;6206146;28;89388;-61
2021/12/06 08:09:49;;;;;;;4.90;4.40;;;20.70;78.60;;;;;;6207629;28;89191;-61
2021/12/06 08:12:51;;;;;;;5.28;4.70;;;20.70;78.60;;;;;;6218382;28;88378;-61
2021/12/06 08:15:57;;;;;;;4.90;4.40;;;20.70;78.60;;;;;;6203707;28;89272;-61
2021/12/06 08:19:00;;;;;;;4.90;4.40;;;20.70;78.60;;;;;;6202193;28;89055;-61
2021/12/06 08:22:02;;;;;;;4.90;4.28;;;20.70;78.50;;;;;;6198121;28;90028;-61
2021/12/06 08:25:05;;;;;;;4.90;4.50;;;20.70;78.50;;;;;;6210656;28;89066;-62
2021/12/06 08:28:08;;;;;;;4.50;4.10;;;20.70;78.50;;;;;;6209001;28;89373;-61
2021/12/06 08:31:12;;;;;;;4.68;4.28;;;20.70;78.50;;;;;;6203199;28;89025;-61
2021/12/06 08:34:14;;;;;;;4.43;4.03;;;20.70;79.40;;;;;;6222062;28;89132;-61
2021/12/06 08:37:17;;;;;;;4.45;4.05;;;20.70;78.50;;;;;;6223938;28;89413;-61
2021/12/06 08:40:21;;;;;;;4.50;4.10;;;20.80;78.50;;;;;;6201965;28;89643;-61
2021/12/06 08:43:23;;;;;;;4.45;4.00;;;20.70;78.50;;;;;;6208062;28;88355;-61
2021/12/06 08:46:30;;;;;;;4.20;3.80;;;20.70;78.50;;;;;;6201937;28;87956;-61
2021/12/06 08:49:33;;;;;;;4.35;3.95;;;20.70;78.50;;;;;;6206839;28;89574;-61
2021/12/06 08:52:36;;;;;;;4.20;3.80;;;20.80;78.60;;;;;;6213415;28;89969;-61
2021/12/06 08:55:38;;;;;;;4.22;3.83;;;20.80;78.70;;;;;;6220170;28;88991;-61
2021/12/06 08:58:41;;;;;;;4.63;4.03;;;20.80;78.70;;;;;;6210536;28;87962;-61
2021/12/06 09:01:44;;;;;;;3.90;3.60;;;20.80;78.70;;;;;;6212335;28;89030;-61
2021/12/06 09:04:47;;;;;;;4.25;3.85;;;20.70;78.70;;;;;;6213225;28;90422;-61
2021/12/06 09:07:49;;;;;;;4.03;3.63;;;20.80;78.80;;;;;;6204072;28;88020;-61
2021/12/06 09:10:53;;;;;;;4.18;3.78;;;20.80;78.80;;;;;;6209210;28;88427;-61
2021/12/06 09:13:55;;;;;;;4.00;3.60;;;20.80;78.80;;;;;;6192776;28;88319;-61
2021/12/06 09:16:58;;;;;;;4.47;4.00;;;20.80;78.90;;;;;;6203926;28;89071;-61
2021/12/06 09:20:00;;;;;;;3.70;3.40;;;20.80;78.80;;;;;;6199343;28;89355;-61
2021/12/06 09:23:04;;;;;;;3.58;3.28;;;20.80;78.80;;;;;;6200115;28;91177;-61
2021/12/06 09:26:07;;;;;;;4.25;3.85;;;20.70;78.80;;;;;;6210413;28;88150;-61
2021/12/06 09:29:09;;;;;;;4.28;3.88;;;20.80;78.90;;;;;;6205284;28;89865;-61
2021/12/06 09:32:16;;;;;;;4.35;3.85;;;20.70;79.80;;;;;;6214288;28;88983;-61
2021/12/06 09:35:23;;;;;;;3.90;3.50;;;20.70;78.80;;;;;;6201984;28;90273;-61
2021/12/06 09:38:27;;;;;;;3.88;3.47;;;20.80;78.90;;;;;;6211927;28;89072;-61
2021/12/06 09:41:29;;;;;;;3.95;3.63;;;20.80;78.90;;;;;;6203089;28;91218;-61
2021/12/06 09:44:32;;;;;;;4.15;3.42;;;20.70;78.80;;;;;;6215278;28;88545;-62
2021/12/06 09:47:36;;;;;;;3.90;3.50;;;20.70;78.80;;;;;;6213656;28;89062;-61
2021/12/06 09:50:43;;;;;;;3.97;3.58;;;20.80;78.90;;;;;;6217581;28;89020;-61
2021/12/06 09:53:46;;;;;;;3.85;3.42;;;20.70;78.80;;;;;;6208370;28;90018;-61
2021/12/06 09:56:51;;;;;;;3.75;3.45;;;20.70;78.80;;;;;;6209382;28;89541;-61
2021/12/06 09:59:53;;;;;;;3.38;3.08;;;20.80;78.90;;;;;;6213263;28;89090;-61
2021/12/06 10:02:57;;;;;;;4.18;3.78;;;20.80;78.90;;;;;;6206305;28;89373;-61
2021/12/06 10:06:04;;;;;;;3.80;3.40;;;20.80;78.90;;;;;;6210535;28;89093;-61
2021/12/06 10:09:10;;;;;;;4.00;3.60;;;20.80;78.90;;;;;;6215488;28;89074;-61
2021/12/06 10:12:15;;;;;;;3.90;3.50;;;20.80;78.90;;;;;;6218003;28;87939;-61
2021/12/06 10:15:17;;;;;;;4.10;3.45;;;20.80;78.90;;;;;;6204638;28;88303;-61
2021/12/06 10:18:20;;;;;;;3.67;3.38;;;20.80;79.00;;;;;;6197421;28;88979;-61
2021/12/06 10:21:27;;;;;;;3.42;3.13;;;20.80;79.00;;;;;;6205650;28;89214;-61
2021/12/06 10:24:30;;;;;;;3.47;3.17;;;20.80;79.00;;;;;;6205589;28;91029;-61
2021/12/06 10:27:33;;;;;;;3.53;3.22;;;20.80;79.00;;;;;;6212965;28;87930;-61
2021/12/06 10:30:37;;;;;;;3.50;3.20;;;20.80;79.10;;;;;;6225489;28;89329;-61
2021/12/06 10:33:45;;;;;;;3.17;2.90;;;20.80;79.10;;;;;;6216858;28;89167;-61
2021/12/06 10:36:47;;;;;;;3.25;2.95;;;20.80;79.00;;;;;;6205634;28;89080;-61
2021/12/06 10:39:54;;;;;;;3.65;3.20;;;20.80;79.10;;;;;;6208827;28;89092;-61
2021/12/06 10:42:57;;;;;;;3.22;2.92;;;20.70;79.00;;;;;;6217643;28;87922;-61
2021/12/06 10:46:01;;;;;;;3.90;3.40;;;20.80;79.10;;;;;;6215558;28;88756;-61
2021/12/06 10:49:08;;;;;;;3.20;2.90;;;20.80;79.10;;;;;;6215214;28;89027;-61
2021/12/06 10:52:10;;;;;;;3.45;3.15;;;20.80;79.10;;;;;;6202984;28;89109;-62
2021/12/06 10:55:12;;;;;;;3.33;3.03;;;20.80;79.20;;;;;;6220687;28;88817;-61
2021/12/06 10:58:19;;;;;;;3.67;3.38;;;20.80;79.20;;;;;;6226606;28;87910;-61
2021/12/06 11:01:23;;;;;;;2.95;2.50;;;20.80;79.20;;;;;;6219733;28;89155;-61
2021/12/06 11:04:29;;;;;;;3.00;2.70;;;20.80;79.10;;;;;;6205396;28;89135;-61
2021/12/06 11:07:33;;;;;;;3.20;2.90;;;20.80;79.10;;;;;;6211011;28;89034;-61
2021/12/06 11:10:39;;;;;;;3.00;2.72;;;20.80;79.10;;;;;;6228439;28;87952;-61
2021/12/06 11:13:44;;;;;;;2.97;2.67;;;20.80;79.10;;;;;;6223052;28;89034;-61
2021/12/06 11:16:48;;;;;;;3.08;2.78;;;20.80;79.10;;;;;;6196865;28;88387;-62
2021/12/06 11:19:54;;;;;;;3.20;2.90;;;20.80;79.10;;;;;;6206008;28;88134;-61
2021/12/06 11:23:05;;;;;;;3.00;2.70;;;20.80;79.00;;;;;;6193640;28;89206;-61
2021/12/06 11:26:07;;;;;;;3.33;3.03;;;20.80;79.00;;;;;;6191728;28;90321;-61
2021/12/06 11:29:16;;;;;;;2.80;2.60;;;20.80;79.00;;;;;;6204956;28;89086;-61
2021/12/06 11:32:21;;;;;;;3.15;2.88;;;20.80;79.00;;;;;;6205074;28;89088;-61
2021/12/06 11:38:49;;;;;;;3.20;2.90;;;20.80;79.00;;;;;;6183228;28;87232;-61
2021/12/06 11:41:54;;;;;;;2.95;2.65;;;20.80;79.00;;;;;;6205122;28;89462;-61
2021/12/06 11:44:57;;;;;;;3.22;2.92;;;20.80;79.00;;;;;;6198967;28;89272;-61
2021/12/06 11:48:02;;;;;;;2.80;2.60;;;20.80;79.00;;;;;;6185320;28;88410;-61
2021/12/06 11:51:10;;;;;;;3.05;2.75;;;20.80;79.00;;;;;;6197609;28;89413;-61
2021/12/06 11:54:12;;;;;;;2.95;2.65;;;20.80;79.00;;;;;;6202731;28;89045;-61
2021/12/06 11:57:21;;;;;;;3.17;2.67;;;20.80;79.00;;;;;;6194701;28;90032;-61
2021/12/06 12:00:25;;;;;;;2.97;2.67;;;20.80;79.00;;;;;;6205436;28;87939;-61
2021/12/06 12:03:31;;;;;;;3.20;2.90;;;20.80;79.00;;;;;;6203068;28;89107;-61
2021/12/06 12:06:36;;;;;;;3.00;2.70;;;20.80;79.00;;;;;;6206181;28;87744;-61
2021/12/06 12:09:40;;;;;;;2.80;2.60;;;20.80;79.90;;;;;;6187676;28;89418;-61
2021/12/06 12:12:53;;;;;;;2.70;2.50;;;20.80;78.90;;;;;;6205044;28;89190;-61
2021/12/06 12:15:58;;;;;;;2.60;2.40;;;20.80;78.90;;;;;;6205008;28;89636;-61
2021/12/06 12:19:00;;;;;;;3.25;2.60;;;20.80;79.00;;;;;;6203151;28;88305;-62
2021/12/06 12:22:04;;;;;;;3.28;2.97;;;20.80;79.00;;;;;;6194780;28;87997;-61
2021/12/06 12:25:14;;;;;;;3.10;2.80;;;20.80;79.00;;;;;;6205130;28;89592;-61
2021/12/06 12:28:21;;;;;;;2.88;2.67;;;20.80;79.00;;;;;;6212555;28;89246;-61
2021/12/06 12:31:23;;;;;;;2.60;2.40;;;20.80;79.00;;;;;;6209723;28;89479;-61
2021/12/06 12:34:28;;;;;;;2.67;2.47;;;20.80;79.00;;;;;;6208492;28;88016;-61
2021/12/06 12:37:34;;;;;;;2.65;2.42;;;20.80;79.00;;;;;;6204224;28;89016;-61
2021/12/06 12:40:43;;;;;;;3.00;2.70;;;20.80;79.00;;;;;;6229201;28;89610;-61
2021/12/06 12:43:48;;;;;;;2.65;2.45;;;20.80;79.00;;;;;;6220323;28;89315;-61
2021/12/06 12:46:53;;;;;;;2.50;2.30;;;20.90;79.00;;;;;;6209165;28;89348;-62
2021/12/06 12:49:58;;;;;;;2.50;2.30;;;20.90;79.00;;;;;;6209831;28;88545;-61
2021/12/06 12:53:09;;;;;;;2.80;2.60;;;20.80;78.90;;;;;;6214645;28;89049;-61
2021/12/06 12:56:18;;;;;;;2.63;2.42;;;20.80;78.90;;;;;;6195552;28;89343;-61
2021/12/06 12:59:33;;;;;;;2.50;2.30;;;20.80;78.90;;;;;;6219820;28;91915;-61
2021/12/06 13:02:38;;;;;;;2.60;2.40;;;20.80;78.90;;;;;;6230279;28;89083;-61
2021/12/06 13:05:40;;;;;;;2.50;2.30;;;20.90;78.90;;;;;;6211103;28;89131;-61
2021/12/06 13:08:44;;;;;;;2.60;2.40;;;20.80;78.80;;;;;;6208589;28;89003;-61
2021/12/06 13:11:57;;;;;;;2.90;2.58;;;20.80;78.90;;;;;;6225709;28;87964;-61
2021/12/06 13:15:12;;;;;;;2.78;2.58;;;20.80;78.90;;;;;;6206429;28;89210;-61
2021/12/06 13:18:32;;;;;;;2.55;2.30;;;20.80;78.90;;;;;;6209886;28;89244;-61
2021/12/06 13:21:48;;;;;;;2.33;2.13;;;20.90;78.90;;;;;;6189004;28;88403;-61
2021/12/06 13:24:59;;;;;;;2.95;2.65;;;20.80;79.30;;;;;;6208166;28;89013;-61
2021/12/06 13:28:06;;;;;;;2.75;2.55;;;20.80;78.90;;;;;;6213181;28;89104;-61
2021/12/06 13:31:08;;;;;;;2.80;2.58;;;20.80;78.90;;;;;;6211514;28;91127;-61
2021/12/06 13:34:18;;;;;;;2.70;2.50;;;20.80;79.00;;;;;;6207052;28;89274;-61
2021/12/06 13:37:26;;;;;;;2.47;2.28;;;20.80;79.00;;;;;;6211936;28;89054;-61
2021/12/06 13:40:31;;;;;;;2.65;2.45;;;20.80;79.00;;;;;;6212634;28;89336;-62
2021/12/06 13:43:36;;;;;;;2.47;2.28;;;20.80;79.00;;;;;;6216826;28;89318;-61
2021/12/06 13:46:40;;;;;;;2.63;2.42;;;20.90;79.00;;;;;;6225045;28;89376;-61
2021/12/06 13:49:57;;;;;;;2.70;2.50;;;20.80;79.00;;;;;;6207553;28;89033;-61
2021/12/06 13:52:59;;;;;;;2.63;2.42;;;20.80;79.00;;;;;;6195191;28;88365;-61
2021/12/06 13:56:07;;;;;;;2.53;2.20;;;20.80;79.10;;;;;;6220046;28;89081;-61
2021/12/06 13:59:10;;;;;;;2.55;2.35;;;20.80;79.00;;;;;;6212057;28;89025;-62
2021/12/06 14:02:16;;;;;;;2.38;2.17;;;20.80;78.90;;;;;;6207414;28;90637;-61
2021/12/06 14:05:18;;;;;;;2.53;2.33;;;20.90;79.00;;;;;;6228409;28;89097;-61
2021/12/06 14:08:23;;;;;;;2.90;2.60;;;20.80;78.90;;;;;;6196880;28;89107;-61
2021/12/06 14:11:27;;;;;;;2.50;2.30;;;20.80;78.90;;;;;;6194945;28;89124;-61
2021/12/06 14:14:35;;;;;;;2.60;2.40;;;20.90;79.20;;;;;;6222280;28;88647;-61
2021/12/06 14:17:37;;;;;;;2.63;2.42;;;20.90;78.80;;;;;;6206115;28;88078;-62
2021/12/06 14:20:45;;;;;;;2.55;2.35;;;20.90;78.80;;;;;;6201550;28;89049;-62
2021/12/06 14:23:48;;;;;;;2.60;2.40;;;20.80;78.80;;;;;;6208250;28;88402;-61
2021/12/06 14:26:52;;;;;;;2.50;2.30;;;20.80;78.80;;;;;;6213703;28;89205;-61
2021/12/06 14:29:55;;;;;;;2.85;2.55;;;20.90;78.90;;;;;;6206917;28;88290;-62
2021/12/06 14:32:58;;;;;;;2.40;2.20;;;20.80;78.80;;;;;;6198699;28;90037;-61
2021/12/06 14:36:01;;;;;;;2.38;2.17;;;20.90;78.90;;;;;;6207520;28;89017;-61
2021/12/06 14:39:13;;;;;;;2.40;2.20;;;20.90;79.00;;;;;;6214451;28;89047;-62
2021/12/06 14:42:18;;;;;;;2.50;2.30;;;20.80;78.90;;;;;;6206402;28;87977;-61
2021/12/06 14:45:23;;;;;;;2.50;2.30;;;20.80;79.00;;;;;;6208786;28;88001;-61
2021/12/06 14:48:26;;;;;;;2.67;2.47;;;20.80;79.00;;;;;;6198946;28;89094;-61
2021/12/06 14:51:32;;;;;;;2.50;2.30;;;20.80;79.00;;;;;;6206068;28;89017;-61
2021/12/06 14:54:35;;;;;;;2.45;2.25;;;20.80;79.10;;;;;;6210862;28;87321;-61
2021/12/06 14:57:38;;;;;;;2.50;2.30;;;20.80;79.10;;;;;;6229616;28;89374;-61
2021/12/06 15:00:44;;;;;;;2.70;2.50;;;20.80;79.20;;;;;;6218938;28;87960;-61
2021/12/06 15:03:48;;;;;;;2.55;2.35;;;20.90;79.20;;;;;;6217443;28;89961;-61
2021/12/06 15:06:50;;;;;;;2.60;2.40;;;20.80;79.20;;;;;;6217829;28;89340;-61
2021/12/06 15:09:53;;;;;;;2.50;2.30;;;20.80;79.20;;;;;;6206734;28;89442;-62
2021/12/06 15:12:58;;;;;;;2.35;2.15;;;20.80;79.20;;;;;;6216341;28;88991;-61
2021/12/06 15:16:03;;;;;;;2.40;2.20;;;20.80;79.20;;;;;;6198223;28;89049;-61
2021/12/06 15:19:09;;;;;;;2.33;2.13;;;20.80;79.20;;;;;;6187032;28;89931;-61
2021/12/06 15:22:11;;;;;;;2.40;2.20;;;20.80;79.30;;;;;;6203779;28;88863;-61
2021/12/06 15:25:13;;;;;;;2.47;2.28;;;20.90;79.30;;;;;;6205040;28;87235;-61
2021/12/06 15:28:17;;;;;;;2.50;2.30;;;20.80;79.20;;;;;;6207243;28;88699;-61
2021/12/06 15:31:20;;;;;;;2.42;2.22;;;20.80;79.20;;;;;;6204734;28;89313;-61
2021/12/06 15:34:23;;;;;;;2.45;2.25;;;20.90;79.30;;;;;;6199262;28;90331;-61
2021/12/06 15:37:28;;;;;;;2.30;2.10;;;20.90;79.20;;;;;;6208972;28;89208;-61
2021/12/06 15:40:30;;;;;;;2.35;2.15;;;20.80;79.20;;;;;;6201364;28;89023;-61
2021/12/06 15:43:36;;;;;;;2.35;2.13;;;20.80;79.20;;;;;;6217992;28;89435;-61
2021/12/06 15:46:42;;;;;;;2.40;2.20;;;20.90;80.10;;;;;;6207275;28;89107;-62
2021/12/06 15:49:49;;;;;;;2.40;2.20;;;20.90;79.20;;;;;;6210044;28;89126;-61
2021/12/06 15:52:52;;;;;;;2.35;2.15;;;20.90;79.20;;;;;;6203217;28;89057;-61
2021/12/06 15:55:58;;;;;;;2.42;2.22;;;20.90;79.20;;;;;;6215633;28;88631;-61
2021/12/06 15:59:04;;;;;;;2.45;2.20;;;20.90;79.20;;;;;;6204337;28;88831;-61
2021/12/06 16:02:11;;;;;;;2.42;2.22;;;20.90;79.20;;;;;;6205068;28;89319;-61